Time;durP1;ratioP1;P1;durP2;ratioP2;P2;SDS_P1;SDS_P2;PMS_P1;PMS_P2;Temp;Humidity;BMP_temperature;BMP_pressure;BME280_temperature;BME280_humidity;BME280_pressure;Samples;Min_cycle;Max_cycle;Signal;HPM_P1;HPM_P2
2022/09/27 00:01:58;;;;;;;6.22;5.83;;;;;;;15.11;83.49;97951.11;1730680;81;20982;-76
2022/09/27 00:04:25;;;;;;;6.37;5.87;;;;;;;15.10;83.57;97955.34;1740052;81;21478;-75
2022/09/27 00:06:51;;;;;;;6.40;5.90;;;;;;;15.10;83.70;97954.83;1729521;81;21215;-76
2022/09/27 00:09:17;;;;;;;5.90;5.33;;;;;;;15.09;83.71;97953.73;1740040;81;20968;-76
2022/09/27 00:11:44;;;;;;;6.47;5.87;;;;;;;15.12;83.76;97947.37;1729736;82;20903;-76
2022/09/27 00:14:12;;;;;;;6.45;5.92;;;;;;;15.14;83.79;97949.31;1740045;81;20908;-76
2022/09/27 00:16:39;;;;;;;6.28;5.67;;;;;;;15.17;83.76;97950.70;1729455;81;21001;-75
2022/09/27 00:19:13;;;;;;;6.30;5.80;;;;;;;15.17;83.63;97948.02;1735443;81;21131;-75
2022/09/27 00:21:39;;;;;;;6.65;6.05;;;;;;;15.16;83.63;97946.38;1740091;81;20979;-75
2022/09/27 00:24:13;;;;;;;6.85;6.33;;;;;;;15.15;83.69;97954.11;1735730;81;20954;-76
2022/09/27 00:26:40;;;;;;;6.80;6.20;;;;;;;15.13;83.77;97949.01;1726184;81;21030;-75
2022/09/27 00:29:06;;;;;;;7.90;7.20;;;;;;;15.16;83.81;97951.73;1738331;81;21034;-74
2022/09/27 00:31:35;;;;;;;7.33;6.72;;;;;;;15.16;83.75;97953.08;1737882;81;21145;-74
2022/09/27 00:34:02;;;;;;;7.53;6.83;;;;;;;15.13;83.78;97948.19;1736242;81;20995;-74
2022/09/27 00:36:29;;;;;;;7.95;7.15;;;;;;;15.10;83.80;97949.99;1729733;81;20948;-74
2022/09/27 00:38:56;;;;;;;8.03;7.40;;;;;;;15.09;83.82;97953.22;1736018;81;20865;-75
2022/09/27 00:41:28;;;;;;;8.58;7.70;;;;;;;15.08;83.85;97948.08;1740072;81;20964;-75
2022/09/27 00:44:00;;;;;;;8.88;8.10;;;;;;;15.07;83.74;97935.76;1740039;81;21144;-74
2022/09/27 00:46:43;;;;;;;9.18;8.40;;;;;;;15.06;83.78;97931.44;1703127;82;20886;-74
2022/09/27 00:49:26;;;;;;;9.38;8.60;;;;;;;15.05;83.78;97923.11;1700355;82;21001;-75
2022/09/27 00:51:59;;;;;;;9.50;8.55;;;;;;;15.03;83.75;97919.86;1702682;82;20905;-75
2022/09/27 00:54:26;;;;;;;9.53;8.63;;;;;;;15.00;83.81;97920.32;1705599;82;20886;-75
2022/09/27 00:56:52;;;;;;;9.48;8.50;;;;;;;15.01;83.91;97917.95;1702113;82;21852;-75
2022/09/27 00:59:27;;;;;;;10.28;9.38;;;;;;;15.02;83.85;97907.50;1699609;82;21033;-76
2022/09/27 01:01:53;;;;;;;10.08;9.28;;;;;;;15.01;83.74;97911.25;1702082;82;21035;-76
2022/09/27 01:04:22;;;;;;;10.95;9.93;;;;;;;14.99;83.78;97910.68;1706205;82;20984;-76
2022/09/27 01:06:50;;;;;;;11.83;10.78;;;;;;;14.97;83.80;97901.53;1702390;82;21498;-76
2022/09/27 01:09:18;;;;;;;10.90;10.00;;;;;;;14.95;83.82;97895.59;1704365;82;21201;-76
2022/09/27 01:11:57;;;;;;;10.95;9.90;;;;;;;14.92;83.89;97893.91;1702627;82;20925;-76
2022/09/27 01:15:22;;;;;;;10.63;9.55;;;;;;;14.89;84.02;97886.38;1702556;82;20909;-75
2022/09/27 01:18:21;;;;;;;11.05;9.95;;;;;;;14.87;84.07;97887.92;1703607;83;21487;-75
2022/09/27 01:21:20;;;;;;;11.25;10.25;;;;;;;14.82;84.19;97887.30;1724796;83;21013;-75
2022/09/27 01:24:07;;;;;;;12.13;10.98;;;;;;;14.81;84.32;97884.33;1725301;83;21452;-76
2022/09/27 01:27:20;;;;;;;11.45;10.45;;;;;;;14.81;84.45;97883.50;1711351;83;20942;-76
2022/09/27 01:30:12;;;;;;;16.25;10.70;;;;;;;14.79;84.55;97877.06;1710845;83;20946;-75
2022/09/27 01:32:57;;;;;;;11.33;10.32;;;;;;;14.78;84.62;97874.08;1712921;83;21035;-75
2022/09/27 01:35:41;;;;;;;10.88;9.88;;;;;;;14.77;84.76;97875.67;1718936;83;21652;-75
2022/09/27 01:38:31;;;;;;;11.88;10.88;;;;;;;14.77;84.86;97877.83;1721698;83;21252;-74
2022/09/27 01:41:07;;;;;;;10.38;9.50;;;;;;;14.78;84.95;97878.09;1720946;83;20995;-76
2022/09/27 01:44:06;;;;;;;12.75;11.48;;;;;;;14.79;85.03;97877.58;1716454;83;20902;-75
2022/09/27 01:46:39;;;;;;;11.75;10.28;;;;;;;14.80;85.08;97876.03;1685434;83;20990;-75
2022/09/27 01:49:28;;;;;;;11.43;10.43;;;;;;;14.83;85.15;97876.86;1689906;83;21468;-76
2022/09/27 01:51:58;;;;;;;17.60;10.93;;;;;;;14.86;85.14;97876.13;1691747;83;21300;-75
2022/09/27 01:54:34;;;;;;;11.43;10.45;;;;;;;14.88;85.10;97875.36;1670734;83;20934;-76
2022/09/27 01:57:21;;;;;;;10.90;10.00;;;;;;;14.91;84.93;97877.05;1693374;83;20903;-76
2022/09/27 02:00:00;;;;;;;11.10;10.05;;;;;;;14.93;84.85;97874.95;1692998;83;21055;-75
2022/09/27 02:02:55;;;;;;;10.90;10.00;;;;;;;14.95;84.87;97874.70;1688712;83;21521;-75
2022/09/27 02:05:41;;;;;;;10.55;9.65;;;;;;;14.97;84.84;97878.77;1624221;87;21600;-75
2022/09/27 02:08:33;;;;;;;12.10;11.10;;;;;;;14.96;84.90;97873.14;1679455;83;21009;-75
2022/09/27 02:11:10;;;;;;;12.15;11.08;;;;;;;14.97;84.88;97868.05;1690823;83;21041;-75
2022/09/27 02:13:50;;;;;;;12.70;10.93;;;;;;;14.97;84.84;97868.05;1671607;83;20978;-76
2022/09/27 02:16:49;;;;;;;14.00;10.82;;;;;;;14.97;84.80;97869.91;1686552;84;21207;-75
2022/09/27 02:19:30;;;;;;;12.45;10.35;;;;;;;14.97;84.77;97869.39;1687240;83;21335;-76
2022/09/27 02:22:10;;;;;;;13.55;11.18;;;;;;;14.98;84.82;97872.89;1691215;83;20986;-75
2022/09/27 02:24:45;;;;;;;12.13;11.03;;;;;;;14.97;84.87;97866.72;1691232;83;21011;-75
2022/09/27 02:27:20;;;;;;;12.20;11.00;;;;;;;14.99;84.76;97858.47;1670808;83;20974;-75
2022/09/27 02:30:01;;;;;;;12.82;11.55;;;;;;;14.98;84.76;97850.95;1690593;83;20903;-75
2022/09/27 02:32:29;;;;;;;12.07;11.08;;;;;;;14.98;84.71;97844.26;1687954;83;21112;-75
2022/09/27 02:34:58;;;;;;;13.78;12.47;;;;;;;14.98;84.68;97836.74;1691810;83;20902;-75
2022/09/27 02:37:24;;;;;;;12.82;11.53;;;;;;;14.97;84.78;97839.94;1691788;83;21512;-75
2022/09/27 02:39:51;;;;;;;12.43;11.22;;;;;;;14.97;84.81;97835.11;1691780;83;20994;-75
2022/09/27 02:42:18;;;;;;;12.20;11.05;;;;;;;14.98;84.88;97838.91;1691447;83;21002;-75
2022/09/27 02:44:44;;;;;;;13.10;11.90;;;;;;;14.97;84.85;97833.25;1694456;83;21534;-75
2022/09/27 02:47:26;;;;;;;13.95;12.68;;;;;;;14.97;84.86;97833.77;1690974;83;20939;-74
2022/09/27 02:50:24;;;;;;;13.83;12.53;;;;;;;14.96;84.94;97832.16;1694452;84;20962;-75
2022/09/27 02:53:21;;;;;;;14.20;12.82;;;;;;;14.96;85.06;97832.16;1693436;84;20953;-75
2022/09/27 02:56:19;;;;;;;13.98;12.35;;;;;;;14.98;85.15;97836.74;1693299;83;20938;-76
2022/09/27 02:59:21;;;;;;;14.95;13.43;;;;;;;14.98;85.12;97832.20;1686322;84;21211;-76
2022/09/27 03:02:13;;;;;;;14.23;12.93;;;;;;;14.99;85.16;97838.38;1681841;84;20978;-75
2022/09/27 03:05:05;;;;;;;16.85;14.87;;;;;;;15.01;85.06;97829.58;1653235;84;20871;-76
2022/09/27 03:07:31;;;;;;;15.40;13.88;;;;;;;15.01;84.96;97828.23;1689981;84;20958;-75
2022/09/27 03:09:58;;;;;;;16.27;14.68;;;;;;;14.96;84.86;97818.77;1669289;84;21079;-75
2022/09/27 03:12:25;;;;;;;18.70;14.58;;;;;;;14.94;84.99;97827.02;1689453;84;21044;-75
2022/09/27 03:14:57;;;;;;;15.25;13.70;;;;;;;14.95;85.05;97821.15;1672887;84;21030;-76
2022/09/27 03:17:37;;;;;;;16.82;15.13;;;;;;;14.98;85.04;97827.38;1689688;84;21566;-76
2022/09/27 03:20:23;;;;;;;15.15;13.48;;;;;;;15.00;85.01;97829.28;1692968;84;21436;-75
2022/09/27 03:22:52;;;;;;;18.73;15.18;;;;;;;15.01;85.00;97827.72;1690029;84;20954;-75
2022/09/27 03:25:20;;;;;;;17.60;15.80;;;;;;;15.02;84.89;97825.31;1693447;84;21541;-75
2022/09/27 03:27:47;;;;;;;15.58;14.10;;;;;;;15.05;84.81;97821.34;1693203;84;20863;-75
2022/09/27 03:30:15;;;;;;;16.07;14.47;;;;;;;15.08;84.79;97821.69;1692713;84;20914;-76
2022/09/27 03:32:43;;;;;;;16.80;15.30;;;;;;;15.12;84.78;97819.36;1693158;84;21527;-75
2022/09/27 03:35:15;;;;;;;15.50;13.70;;;;;;;15.13;84.66;97818.29;1694232;84;21491;-75
2022/09/27 03:37:42;;;;;;;16.70;14.03;;;;;;;15.15;84.63;97818.86;1693503;84;21274;-75
2022/09/27 03:40:10;;;;;;;17.50;14.85;;;;;;;15.15;84.66;97814.84;1694538;84;20926;-75
2022/09/27 03:42:38;;;;;;;15.00;13.35;;;;;;;15.17;84.61;97810.08;1693433;84;21012;-75
2022/09/27 03:45:05;;;;;;;14.47;13.08;;;;;;;15.16;84.56;97808.44;1692206;83;21026;-75
2022/09/27 03:47:34;;;;;;;14.35;12.82;;;;;;;15.16;84.56;97809.78;1701419;83;20923;-76
2022/09/27 03:50:00;;;;;;;11.88;10.85;;;;;;;15.16;84.57;97807.10;1711262;83;21989;-76
2022/09/27 03:52:27;;;;;;;17.60;15.85;;;;;;;15.16;84.54;97804.42;1719518;83;21474;-76
2022/09/27 03:54:53;;;;;;;19.92;15.18;;;;;;;15.18;84.40;97799.63;1713515;83;21073;-74
2022/09/27 03:57:20;;;;;;;17.15;15.60;;;;;;;15.19;84.38;97795.91;1697918;83;21010;-74
2022/09/27 03:59:46;;;;;;;14.68;13.38;;;;;;;15.20;84.28;97797.00;1709327;83;20947;-76
2022/09/27 04:02:20;;;;;;;12.45;11.35;;;;;;;15.19;84.29;97795.39;1708584;83;21792;-74
2022/09/27 04:04:52;;;;;;;13.48;11.97;;;;;;;15.18;84.24;97793.76;1695264;83;20991;-75
2022/09/27 04:07:18;;;;;;;11.80;10.60;;;;;;;15.18;84.15;97781.70;1709770;83;21041;-75
2022/09/27 04:09:45;;;;;;;12.15;10.98;;;;;;;15.18;84.11;97786.24;1718556;83;20876;-76
2022/09/27 04:12:12;;;;;;;12.75;11.45;;;;;;;15.16;84.16;97786.49;1720459;83;20981;-75
2022/09/27 04:14:39;;;;;;;11.50;10.35;;;;;;;15.17;84.25;97793.45;1723934;83;21156;-75
2022/09/27 04:17:19;;;;;;;11.95;10.85;;;;;;;15.20;84.20;97786.28;1649126;83;21026;-76
2022/09/27 04:19:49;;;;;;;11.38;10.35;;;;;;;15.23;84.09;97780.97;1661055;83;21066;-76
2022/09/27 04:22:16;;;;;;;10.98;9.98;;;;;;;15.23;83.96;97786.33;1711671;83;21079;-76
2022/09/27 04:24:43;;;;;;;12.37;11.18;;;;;;;15.21;83.89;97793.80;1714520;83;20888;-76
2022/09/27 04:27:17;;;;;;;11.28;10.30;;;;;;;15.20;83.94;97792.20;1702295;83;21161;-76
2022/09/27 04:29:44;;;;;;;10.65;9.75;;;;;;;15.21;84.07;97791.94;1717933;83;20911;-76
2022/09/27 04:32:13;;;;;;;12.23;11.12;;;;;;;15.21;84.06;97793.28;1710636;83;20916;-76
2022/09/27 04:37:43;;;;;;;11.33;10.23;;;;;;;15.22;84.13;97796.78;1708220;83;21495;-76
2022/09/27 04:40:10;;;;;;;11.28;10.32;;;;;;;15.24;84.11;97794.66;1722821;83;21197;-76
2022/09/27 04:42:37;;;;;;;11.18;10.25;;;;;;;15.25;84.10;97789.05;1726432;83;20963;-76
2022/09/27 04:45:06;;;;;;;14.73;13.25;;;;;;;15.28;83.96;97788.58;1714343;81;21060;-76
2022/09/27 04:47:34;;;;;;;13.55;12.15;;;;;;;15.28;83.86;97784.56;1726631;81;20931;-76
2022/09/27 04:50:01;;;;;;;14.78;13.45;;;;;;;15.30;83.86;97789.14;1739001;81;21132;-76
2022/09/27 04:52:28;;;;;;;12.03;11.03;;;;;;;15.32;83.89;97779.55;1687039;82;21223;-76
2022/09/27 04:54:56;;;;;;;12.37;11.30;;;;;;;15.34;83.87;97776.09;1716508;81;21455;-76
2022/09/27 04:57:23;;;;;;;12.28;11.10;;;;;;;15.35;83.79;97779.06;1720339;81;21440;-76
2022/09/27 04:59:50;;;;;;;12.80;11.60;;;;;;;15.35;83.75;97777.73;1722573;81;20959;-74
2022/09/27 05:02:17;;;;;;;12.28;11.18;;;;;;;15.37;83.75;97774.27;1736777;81;20851;-76
2022/09/27 05:04:45;;;;;;;13.38;12.18;;;;;;;15.40;83.80;97768.44;1768317;80;21436;-75
2022/09/27 05:07:12;;;;;;;14.18;12.65;;;;;;;15.42;83.75;97769.00;1733137;81;20979;-74
2022/09/27 05:09:41;;;;;;;14.13;12.82;;;;;;;15.44;83.70;97761.00;1783206;80;20969;-75
2022/09/27 05:12:08;;;;;;;15.13;13.72;;;;;;;15.48;83.58;97761.38;1730277;81;21548;-75
2022/09/27 05:14:42;;;;;;;14.28;13.08;;;;;;;15.48;83.48;97765.39;1722592;81;21100;-75
2022/09/27 05:17:11;;;;;;;13.03;11.75;;;;;;;15.47;83.38;97767.78;1764739;80;21137;-72
2022/09/27 05:19:49;;;;;;;13.30;12.05;;;;;;;15.48;83.30;97770.75;1720297;81;21018;-75
2022/09/27 05:22:29;;;;;;;13.10;12.00;;;;;;;15.49;83.26;97764.88;1733956;82;20982;-73
2022/09/27 05:24:58;;;;;;;13.15;12.00;;;;;;;15.52;82.98;97779.10;1720001;82;21488;-70
2022/09/27 05:27:25;;;;;;;13.15;11.78;;;;;;;15.52;82.93;97777.76;1769214;80;20939;-70
2022/09/27 05:29:52;;;;;;;13.10;12.00;;;;;;;15.54;82.88;97783.16;1699430;83;21123;-73
2022/09/27 05:32:21;;;;;;;12.37;11.18;;;;;;;15.57;82.76;97777.33;1749779;81;20945;-82
2022/09/27 05:34:52;;;;;;;13.13;12.03;;;;;;;15.59;82.64;97773.86;1747020;80;20974;-73
2022/09/27 05:37:18;;;;;;;12.55;11.38;;;;;;;15.60;82.57;97775.50;1746316;81;20851;-73
2022/09/27 05:39:45;;;;;;;12.33;11.18;;;;;;;15.65;82.57;97779.61;1762050;81;20926;-73
2022/09/27 05:42:14;;;;;;;13.28;12.03;;;;;;;15.69;82.57;97777.26;1760426;81;21879;-73
2022/09/27 05:44:45;;;;;;;13.88;12.63;;;;;;;15.74;82.50;97767.95;1742830;81;20967;-73
2022/09/27 05:47:10;;;;;;;15.65;14.10;;;;;;;15.76;82.30;97770.67;1730326;81;20978;-72
2022/09/27 05:49:39;;;;;;;17.12;15.48;;;;;;;15.77;82.13;97772.84;1739721;81;21018;-75
2022/09/27 05:52:06;;;;;;;19.70;15.48;;;;;;;15.77;82.01;97773.63;1729330;81;21010;-74
2022/09/27 05:54:33;;;;;;;16.45;14.93;;;;;;;15.81;81.84;97776.64;1729894;82;21126;-74
2022/09/27 05:57:00;;;;;;;15.60;14.10;;;;;;;15.83;81.79;97778.02;1741718;81;20946;-70
2022/09/27 05:59:40;;;;;;;15.75;14.25;;;;;;;15.87;81.72;97781.86;1744226;81;21007;-73
2022/09/27 06:02:19;;;;;;;14.30;12.95;;;;;;;15.93;81.49;97776.83;1735238;81;21025;-76
2022/09/27 06:05:06;;;;;;;15.13;13.50;;;;;;;15.93;81.41;97776.83;1746444;81;20892;-76
2022/09/27 06:07:37;;;;;;;16.07;14.50;;;;;;;15.97;81.38;97774.48;1712057;82;21591;-78
2022/09/27 06:10:06;;;;;;;16.80;15.10;;;;;;;16.00;81.23;97776.16;1735438;81;21088;-78
2022/09/27 06:12:34;;;;;;;15.72;14.33;;;;;;;16.01;81.11;97768.37;1747913;81;21497;-80
2022/09/27 06:15:01;;;;;;;14.40;13.10;;;;;;;16.05;80.98;97773.55;1747314;81;20955;-75
2022/09/27 06:17:34;;;;;;;14.85;13.10;;;;;;;16.08;80.84;97765.53;1757030;80;20870;-76
2022/09/27 06:20:03;;;;;;;15.48;14.00;;;;;;;16.06;80.61;97770.31;1721509;81;21166;-75
2022/09/27 06:22:31;;;;;;;15.32;13.88;;;;;;;16.08;80.53;97766.88;1721712;81;20923;-76
2022/09/27 06:24:59;;;;;;;14.53;13.13;;;;;;;16.11;80.45;97760.20;1712859;81;20991;-74
2022/09/27 06:27:28;;;;;;;15.38;13.90;;;;;;;16.16;80.26;97761.62;1718754;81;20958;-76
2022/09/27 06:30:03;;;;;;;15.48;14.07;;;;;;;16.19;80.22;97763.81;1721305;81;21038;-73
2022/09/27 06:33:00;;;;;;;14.18;12.98;;;;;;;16.22;80.17;97759.27;1723842;81;21158;-71
2022/09/27 06:35:34;;;;;;;13.18;11.90;;;;;;;16.29;80.18;97763.95;1720716;81;20992;-72
2022/09/27 06:38:03;;;;;;;14.80;13.30;;;;;;;16.35;80.13;97761.59;1721853;81;20983;-72
2022/09/27 06:40:31;;;;;;;14.45;13.15;;;;;;;16.43;80.15;97766.53;1739327;81;21693;-72
2022/09/27 06:43:08;;;;;;;14.03;12.78;;;;;;;16.50;80.15;97772.00;1719360;81;21483;-71
2022/09/27 06:45:54;;;;;;;14.35;12.90;;;;;;;16.59;79.97;97769.73;1606103;87;21130;-71
2022/09/27 06:48:23;;;;;;;14.20;12.75;;;;;;;16.67;79.42;97778.70;1605293;88;21579;-74
2022/09/27 06:50:56;;;;;;;14.53;13.15;;;;;;;16.71;79.21;97778.50;1684166;80;20956;-73
2022/09/27 06:53:23;;;;;;;14.58;13.28;;;;;;;16.75;79.03;97774.23;1746410;80;21489;-74
2022/09/27 06:55:50;;;;;;;14.80;13.50;;;;;;;16.73;78.64;97773.69;1747667;81;21043;-74
2022/09/27 07:01:07;;;;;;;15.48;13.98;;;;;;;16.78;77.89;97777.77;1704012;82;20986;-74
2022/09/27 07:03:52;;;;;;;15.55;14.07;;;;;;;16.82;77.52;97774.03;1747335;81;21508;-77
2022/09/27 07:06:23;;;;;;;15.98;14.55;;;;;;;16.85;77.16;97769.51;1735494;81;21495;-77
2022/09/27 07:08:52;;;;;;;17.20;15.50;;;;;;;16.88;77.03;97766.32;1739387;81;21069;-75
2022/09/27 07:11:22;;;;;;;15.58;14.28;;;;;;;16.96;76.87;97761.85;1722040;81;21100;-71
2022/09/27 07:13:50;;;;;;;15.72;14.35;;;;;;;17.05;76.53;97762.48;1722199;81;21568;-74
2022/09/27 07:16:17;;;;;;;15.10;13.85;;;;;;;17.14;76.21;97759.64;1729633;81;21550;-72
2022/09/27 07:18:47;;;;;;;15.93;14.50;;;;;;;17.19;76.01;97761.03;1702847;81;21568;-73
2022/09/27 07:21:15;;;;;;;16.60;15.00;;;;;;;17.20;76.04;97761.84;1700450;82;21587;-77
2022/09/27 07:23:41;;;;;;;16.05;14.63;;;;;;;17.22;76.06;97757.02;1721616;81;21238;-74
2022/09/27 07:26:11;;;;;;;16.48;14.93;;;;;;;17.25;75.68;97752.48;1744202;81;20993;-74
2022/09/27 07:28:40;;;;;;;16.20;14.78;;;;;;;17.29;75.44;97752.25;1733426;81;21646;-77
2022/09/27 07:31:08;;;;;;;17.12;15.63;;;;;;;17.36;75.26;97748.02;1717807;81;21015;-79
2022/09/27 07:33:34;;;;;;;16.57;14.68;;;;;;;17.40;75.03;97756.66;1722261;81;21521;-77
2022/09/27 07:36:07;;;;;;;16.23;14.75;;;;;;;17.43;74.71;97759.37;1720711;81;21269;-74
2022/09/27 07:38:36;;;;;;;15.43;14.03;;;;;;;17.43;74.28;97758.84;1721974;81;21003;-76
2022/09/27 07:41:12;;;;;;;16.93;15.30;;;;;;;17.47;74.03;97754.56;1726716;81;20962;-77
2022/09/27 07:43:40;;;;;;;17.80;16.05;;;;;;;17.58;74.02;97750.12;1715704;82;21540;-77
2022/09/27 07:46:07;;;;;;;17.70;16.10;;;;;;;17.67;73.93;97745.91;1704296;82;21530;-76
2022/09/27 07:48:35;;;;;;;18.17;16.37;;;;;;;17.74;73.90;97750.52;1720461;81;21801;-77
2022/09/27 07:51:06;;;;;;;18.10;16.30;;;;;;;17.78;73.66;97754.34;1702260;81;20922;-73
2022/09/27 07:53:40;;;;;;;18.27;16.57;;;;;;;17.81;73.56;97757.30;1711605;81;21537;-74
2022/09/27 07:56:27;;;;;;;16.45;14.95;;;;;;;17.84;73.32;97755.98;1721032;81;20968;-73
2022/09/27 07:58:54;;;;;;;18.32;16.62;;;;;;;17.81;72.97;97752.45;1737259;81;20929;-72
2022/09/27 08:01:21;;;;;;;18.00;16.30;;;;;;;17.78;73.02;97757.02;1719714;81;21799;-79
2022/09/27 08:03:48;;;;;;;16.93;15.32;;;;;;;17.76;73.25;97756.45;1718146;81;20931;-75
2022/09/27 08:06:16;;;;;;;17.17;15.63;;;;;;;17.77;73.48;97762.12;1723935;81;20862;-79
2022/09/27 08:08:44;;;;;;;17.23;15.58;;;;;;;17.75;73.38;97754.84;1709934;81;20992;-71
2022/09/27 08:11:17;;;;;;;16.90;15.40;;;;;;;17.75;73.48;97759.66;1776446;80;20931;-72
2022/09/27 08:13:46;;;;;;;15.88;14.47;;;;;;;17.75;73.26;97756.98;1759712;81;21179;-70
2022/09/27 08:16:13;;;;;;;16.40;14.87;;;;;;;17.74;73.04;97762.63;1732100;81;21010;-70
2022/09/27 08:18:54;;;;;;;15.65;14.35;;;;;;;17.69;72.41;97761.24;1662322;82;21476;-71
2022/09/27 08:21:25;;;;;;;15.13;13.72;;;;;;;17.59;71.83;97759.82;1772880;80;20895;-72
2022/09/27 08:23:54;;;;;;;14.38;13.10;;;;;;;17.50;71.58;97764.81;1708342;82;21493;-73
2022/09/27 08:26:27;;;;;;;14.53;13.22;;;;;;;17.41;71.27;97762.85;1722254;80;21165;-72
2022/09/27 08:29:08;;;;;;;13.28;12.10;;;;;;;17.35;71.13;97758.48;1776113;80;21001;-71
2022/09/27 08:31:36;;;;;;;14.73;13.43;;;;;;;17.32;71.43;97761.67;1740717;81;20890;-73
2022/09/27 08:34:03;;;;;;;14.75;13.55;;;;;;;17.34;71.55;97761.70;1756494;81;21515;-71
2022/09/27 08:36:34;;;;;;;14.15;12.98;;;;;;;17.37;71.29;97753.66;1757200;81;20933;-70
2022/09/27 08:38:59;;;;;;;13.98;12.80;;;;;;;17.35;71.12;97755.80;1708432;82;21351;-72
2022/09/27 08:41:39;;;;;;;15.40;13.88;;;;;;;17.34;71.25;97762.26;1721391;81;20971;-72
2022/09/27 08:44:55;;;;;;;14.98;13.68;;;;;;;17.31;71.12;97761.41;1726638;80;20899;-72
2022/09/27 08:47:30;;;;;;;14.23;13.03;;;;;;;17.20;71.10;97762.66;1764480;80;28265;-71
2022/09/27 08:50:31;;;;;;;14.75;13.55;;;;;;;17.07;71.38;97767.09;1773316;80;21420;-72
2022/09/27 08:53:22;;;;;;;13.00;11.97;;;;;;;17.00;71.55;97765.12;1771413;80;21266;-71
2022/09/27 08:55:51;;;;;;;14.35;13.15;;;;;;;16.92;71.67;97767.46;1762003;80;20961;-73
2022/09/27 08:58:41;;;;;;;13.13;11.88;;;;;;;16.88;71.96;97764.98;1736972;80;20965;-72
2022/09/27 09:01:16;;;;;;;12.75;11.75;;;;;;;16.83;72.05;97767.08;1727751;81;20981;-72
2022/09/27 09:03:56;;;;;;;13.08;11.93;;;;;;;16.77;72.17;97764.05;1757292;80;20855;-72
2022/09/27 09:06:30;;;;;;;13.03;11.93;;;;;;;16.64;72.47;97757.19;1769742;80;21237;-71
2022/09/27 09:09:29;;;;;;;13.68;12.63;;;;;;;16.55;73.05;97761.91;1768705;80;20899;-71
2022/09/27 09:15:27;;;;;;;13.83;12.73;;;;;;;16.48;73.60;97758.55;1707258;82;21513;-71
2022/09/27 09:18:19;;;;;;;12.43;11.43;;;;;;;16.46;73.92;97754.78;1716809;82;20948;-73
2022/09/27 09:21:24;;;;;;;13.18;12.07;;;;;;;16.49;73.98;97754.81;1718307;80;21172;-72
2022/09/27 09:24:08;;;;;;;13.43;12.03;;;;;;;16.57;74.37;97753.08;1728895;81;20923;-73
2022/09/27 09:27:00;;;;;;;14.47;13.22;;;;;;;16.69;74.31;97748.38;1748041;81;20865;-69
2022/09/27 09:29:59;;;;;;;15.35;14.05;;;;;;;16.84;74.27;97744.52;1720982;81;21482;-72
2022/09/27 09:32:58;;;;;;;17.37;15.72;;;;;;;17.04;73.89;97743.42;1740462;81;20878;-74
2022/09/27 09:35:36;;;;;;;14.78;13.58;;;;;;;17.21;73.37;97740.61;1733937;81;21249;-72
2022/09/27 09:38:07;;;;;;;15.75;14.20;;;;;;;17.29;72.87;97743.66;1745596;81;20993;-71
2022/09/27 09:40:40;;;;;;;14.30;13.05;;;;;;;17.33;72.62;97743.97;1764060;80;20923;-73
2022/09/27 09:43:12;;;;;;;14.98;13.65;;;;;;;17.36;72.21;97742.65;1730888;80;20919;-71
2022/09/27 09:46:08;;;;;;;14.23;13.03;;;;;;;17.41;71.99;97748.06;1737381;81;20965;-70
2022/09/27 09:48:49;;;;;;;15.48;14.05;;;;;;;17.50;71.55;97747.86;1717122;81;21918;-73
2022/09/27 09:51:23;;;;;;;14.63;13.43;;;;;;;17.63;71.24;97746.13;1750346;81;21006;-72
2022/09/27 09:54:07;;;;;;;14.13;12.93;;;;;;;17.85;70.79;97745.50;1750483;81;20991;-73
2022/09/27 09:56:41;;;;;;;15.65;14.23;;;;;;;18.05;70.08;97742.12;1749459;81;20969;-72
2022/09/27 09:59:13;;;;;;;15.15;13.78;;;;;;;18.21;69.23;97737.94;1721076;82;20952;-73
2022/09/27 10:01:43;;;;;;;13.48;12.35;;;;;;;18.31;68.96;97735.30;1741957;81;21220;-73
2022/09/27 10:04:24;;;;;;;13.60;12.50;;;;;;;18.38;68.86;97729.13;1750281;81;20971;-72
2022/09/27 10:06:52;;;;;;;14.30;13.00;;;;;;;18.49;68.44;97730.84;1742837;81;20987;-72
2022/09/27 10:09:23;;;;;;;16.50;15.10;;;;;;;18.59;67.72;97726.02;1750326;81;21604;-71
2022/09/27 10:12:09;;;;;;;14.18;12.93;;;;;;;18.65;67.10;97734.41;1747696;81;20890;-71
2022/09/27 10:14:36;;;;;;;11.80;10.80;;;;;;;18.63;66.58;97731.70;1742710;81;22347;-70
2022/09/27 10:17:07;;;;;;;13.00;11.65;;;;;;;18.61;66.26;97732.51;1749872;81;20971;-72
2022/09/27 10:19:35;;;;;;;12.07;10.98;;;;;;;18.62;65.97;97735.45;1750281;81;20941;-71
2022/09/27 10:22:15;;;;;;;12.90;11.80;;;;;;;18.59;65.80;97734.09;1750277;81;20947;-71
2022/09/27 10:24:57;;;;;;;11.97;10.90;;;;;;;18.55;65.72;97731.67;1750440;81;20998;-73
2022/09/27 10:27:26;;;;;;;13.35;12.25;;;;;;;18.52;65.74;97730.84;1746651;81;21877;-73
2022/09/27 10:29:58;;;;;;;14.00;12.90;;;;;;;18.47;65.94;97738.37;1750209;81;20923;-70
2022/09/27 10:32:35;;;;;;;12.70;11.70;;;;;;;18.42;65.86;97734.81;1748606;81;20951;-71
2022/09/27 10:35:35;;;;;;;13.10;12.03;;;;;;;18.42;65.90;97731.59;1749639;81;21524;-70
2022/09/27 10:38:20;;;;;;;11.18;10.28;;;;;;;18.48;65.99;97727.86;1750479;81;20997;-70
2022/09/27 10:40:52;;;;;;;12.50;11.40;;;;;;;18.69;65.86;97724.73;1732650;81;21157;-73
2022/09/27 10:43:34;;;;;;;11.35;10.43;;;;;;;18.77;65.83;97723.41;1750342;81;20928;-74
2022/09/27 10:46:27;;;;;;;12.98;11.78;;;;;;;18.93;65.38;97715.09;1746184;81;20989;-74
2022/09/27 10:49:29;;;;;;;13.08;11.78;;;;;;;19.14;64.68;97709.77;1741262;81;21013;-70
2022/09/27 10:52:06;;;;;;;14.00;12.63;;;;;;;19.30;63.78;97711.38;1730614;81;20946;-70
2022/09/27 10:54:34;;;;;;;14.23;12.98;;;;;;;19.32;63.44;97703.30;1736583;81;21885;-71
2022/09/27 10:57:20;;;;;;;14.20;12.88;;;;;;;19.42;63.21;97697.93;1739727;81;20966;-74
2022/09/27 10:59:52;;;;;;;12.73;11.60;;;;;;;19.49;62.81;97687.70;1740005;81;21003;-71
2022/09/27 11:02:25;;;;;;;12.63;11.53;;;;;;;19.52;62.30;97685.82;1737466;81;20963;-71
2022/09/27 11:05:16;;;;;;;12.15;11.12;;;;;;;19.48;62.13;97692.81;1740273;81;20940;-72
2022/09/27 11:07:51;;;;;;;11.50;10.43;;;;;;;19.58;62.14;97698.73;1737360;81;21042;-71
2022/09/27 11:10:27;;;;;;;10.93;9.95;;;;;;;19.76;61.80;97695.52;1739846;81;21031;-71
2022/09/27 11:13:17;;;;;;;10.60;9.80;;;;;;;19.98;61.27;97689.80;1739910;81;20908;-71
2022/09/27 11:16:35;;;;;;;9.90;9.00;;;;;;;20.17;60.59;97695.70;1739701;81;21010;-73
2022/09/27 11:19:31;;;;;;;10.08;9.13;;;;;;;20.33;59.62;97692.44;1737911;81;21000;-72
2022/09/27 11:22:24;;;;;;;10.98;9.98;;;;;;;20.40;59.00;97692.95;1739746;81;21560;-72
2022/09/27 11:25:13;;;;;;;10.00;9.30;;;;;;;20.43;58.53;97695.10;1739275;81;21004;-70
2022/09/27 11:28:09;;;;;;;14.20;10.23;;;;;;;20.47;58.24;97692.10;1728416;81;21036;-70
2022/09/27 11:31:03;;;;;;;12.53;10.75;;;;;;;20.51;57.93;97693.72;1739407;81;21384;-72
2022/09/27 11:34:12;;;;;;;12.95;11.95;;;;;;;20.50;58.39;97688.04;1706031;82;20996;-70
2022/09/27 11:37:00;;;;;;;12.75;11.73;;;;;;;20.47;58.58;97692.10;1734901;81;21244;-74
2022/09/27 11:39:41;;;;;;;12.37;11.40;;;;;;;20.46;58.47;97681.05;1753849;80;20848;-74
2022/09/27 11:42:38;;;;;;;11.97;10.93;;;;;;;20.41;58.43;97684.31;1695659;81;20964;-72
2022/09/27 11:45:42;;;;;;;10.28;9.48;;;;;;;20.31;58.61;97683.78;1727552;81;21543;-73
2022/09/27 11:48:35;;;;;;;9.85;9.05;;;;;;;20.26;58.20;97677.87;1719780;81;21554;-73
2022/09/27 11:51:43;;;;;;;9.10;8.40;;;;;;;20.19;57.54;97676.52;1687230;81;21878;-72
2022/09/27 11:54:53;;;;;;;10.53;9.63;;;;;;;20.11;57.57;97684.64;1732841;81;21542;-72
2022/09/27 11:57:34;;;;;;;9.95;9.05;;;;;;;20.08;57.58;97678.97;1732853;81;20985;-71
2022/09/27 12:00:23;;;;;;;10.03;9.05;;;;;;;20.09;57.52;97679.25;1699642;81;21014;-73
2022/09/27 12:03:23;;;;;;;9.53;8.73;;;;;;;20.12;57.78;97677.36;1742948;81;21518;-70
2022/09/27 12:06:05;;;;;;;10.03;9.13;;;;;;;20.07;57.68;97670.09;1731557;81;22034;-73
2022/09/27 12:08:53;;;;;;;8.53;7.92;;;;;;;20.09;57.58;97672.50;1732791;81;20972;-71
2022/09/27 12:11:29;;;;;;;8.93;8.13;;;;;;;20.08;57.37;97669.52;1739793;80;20989;-72